sensor_id;sensor_type;location;lat;lon;timestamp;P1;durP1;ratioP1;P2;durP2;ratioP2
7359;SDS011;3720;48.274;7.796;2023-02-28T00:00:22;6.47;;;4.23;;
7359;SDS011;3720;48.274;7.796;2023-02-28T00:02:54;5.85;;;3.58;;
7359;SDS011;3720;48.274;7.796;2023-02-28T00:05:27;5.05;;;3.25;;
7359;SDS011;3720;48.274;7.796;2023-02-28T00:07:59;6.90;;;3.30;;
7359;SDS011;3720;48.274;7.796;2023-02-28T00:10:31;5.22;;;3.22;;
7359;SDS011;3720;48.274;7.796;2023-02-28T00:13:05;6.28;;;3.03;;
7359;SDS011;3720;48.274;7.796;2023-02-28T00:15:37;4.97;;;2.92;;
7359;SDS011;3720;48.274;7.796;2023-02-28T00:18:10;4.72;;;2.80;;
7359;SDS011;3720;48.274;7.796;2023-02-28T00:20:41;5.43;;;3.20;;
7359;SDS011;3720;48.274;7.796;2023-02-28T00:23:13;5.43;;;2.80;;
7359;SDS011;3720;48.274;7.796;2023-02-28T00:25:45;7.28;;;3.47;;
7359;SDS011;3720;48.274;7.796;2023-02-28T00:28:19;5.93;;;3.70;;
7359;SDS011;3720;48.274;7.796;2023-02-28T00:30:51;6.45;;;3.30;;
7359;SDS011;3720;48.274;7.796;2023-02-28T00:33:23;6.13;;;3.28;;
7359;SDS011;3720;48.274;7.796;2023-02-28T00:36:05;6.53;;;3.33;;
7359;SDS011;3720;48.274;7.796;2023-02-28T00:38:40;4.53;;;2.75;;
7359;SDS011;3720;48.274;7.796;2023-02-28T00:41:12;6.00;;;3.20;;
7359;SDS011;3720;48.274;7.796;2023-02-28T00:43:45;6.40;;;3.20;;
7359;SDS011;3720;48.274;7.796;2023-02-28T00:46:17;7.70;;;3.90;;
7359;SDS011;3720;48.274;7.796;2023-02-28T00:48:49;7.28;;;3.97;;
7359;SDS011;3720;48.274;7.796;2023-02-28T00:51:21;9.30;;;4.75;;
7359;SDS011;3720;48.274;7.796;2023-02-28T00:53:53;8.10;;;3.75;;
7359;SDS011;3720;48.274;7.796;2023-02-28T00:56:25;9.70;;;5.03;;
7359;SDS011;3720;48.274;7.796;2023-02-28T00:58:59;6.88;;;3.90;;
7359;SDS011;3720;48.274;7.796;2023-02-28T01:01:30;6.78;;;3.42;;
7359;SDS011;3720;48.274;7.796;2023-02-28T01:04:03;6.32;;;3.22;;
7359;SDS011;3720;48.274;7.796;2023-02-28T01:06:36;6.65;;;3.60;;
7359;SDS011;3720;48.274;7.796;2023-02-28T01:09:08;4.10;;;2.50;;
7359;SDS011;3720;48.274;7.796;2023-02-28T01:11:41;4.50;;;3.05;;
7359;SDS011;3720;48.274;7.796;2023-02-28T01:14:15;5.40;;;2.83;;
7359;SDS011;3720;48.274;7.796;2023-02-28T01:16:48;4.85;;;2.78;;
7359;SDS011;3720;48.274;7.796;2023-02-28T01:19:21;6.50;;;2.80;;
7359;SDS011;3720;48.274;7.796;2023-02-28T01:21:53;6.60;;;2.90;;
7359;SDS011;3720;48.274;7.796;2023-02-28T01:24:25;5.07;;;2.83;;
7359;SDS011;3720;48.274;7.796;2023-02-28T01:26:57;7.32;;;2.83;;
7359;SDS011;3720;48.274;7.796;2023-02-28T01:29:30;5.43;;;3.10;;
7359;SDS011;3720;48.274;7.796;2023-02-28T01:32:02;3.88;;;2.92;;
7359;SDS011;3720;48.274;7.796;2023-02-28T01:34:35;6.00;;;3.20;;
7359;SDS011;3720;48.274;7.796;2023-02-28T01:37:07;5.50;;;2.90;;
7359;SDS011;3720;48.274;7.796;2023-02-28T01:39:38;5.63;;;3.03;;
7359;SDS011;3720;48.274;7.796;2023-02-28T01:42:11;5.57;;;3.05;;
7359;SDS011;3720;48.274;7.796;2023-02-28T01:45:02;5.10;;;2.60;;
7359;SDS011;3720;48.274;7.796;2023-02-28T01:47:47;4.47;;;2.90;;
7359;SDS011;3720;48.274;7.796;2023-02-28T01:50:22;5.53;;;2.95;;
7359;SDS011;3720;48.274;7.796;2023-02-28T01:52:57;4.75;;;3.00;;
7359;SDS011;3720;48.274;7.796;2023-02-28T01:55:32;4.25;;;3.05;;
7359;SDS011;3720;48.274;7.796;2023-02-28T01:58:05;4.05;;;2.80;;
7359;SDS011;3720;48.274;7.796;2023-02-28T02:00:41;5.20;;;3.28;;
7359;SDS011;3720;48.274;7.796;2023-02-28T02:03:13;4.90;;;3.00;;
7359;SDS011;3720;48.274;7.796;2023-02-28T02:05:48;7.15;;;3.40;;
7359;SDS011;3720;48.274;7.796;2023-02-28T02:08:23;7.10;;;3.83;;
7359;SDS011;3720;48.274;7.796;2023-02-28T02:10:57;4.43;;;3.10;;
7359;SDS011;3720;48.274;7.796;2023-02-28T02:13:45;6.22;;;3.60;;
7359;SDS011;3720;48.274;7.796;2023-02-28T02:16:36;6.00;;;3.63;;
7359;SDS011;3720;48.274;7.796;2023-02-28T02:19:28;6.35;;;3.30;;
7359;SDS011;3720;48.274;7.796;2023-02-28T02:22:29;5.82;;;3.42;;
7359;SDS011;3720;48.274;7.796;2023-02-28T02:25:32;6.27;;;3.37;;
7359;SDS011;3720;48.274;7.796;2023-02-28T02:28:29;7.45;;;3.50;;
7359;SDS011;3720;48.274;7.796;2023-02-28T02:31:29;5.70;;;3.45;;
7359;SDS011;3720;48.274;7.796;2023-02-28T02:37:24;7.40;;;3.60;;
7359;SDS011;3720;48.274;7.796;2023-02-28T02:40:04;5.95;;;3.83;;
7359;SDS011;3720;48.274;7.796;2023-02-28T02:42:44;5.90;;;3.67;;
7359;SDS011;3720;48.274;7.796;2023-02-28T02:45:22;8.30;;;3.50;;
7359;SDS011;3720;48.274;7.796;2023-02-28T02:47:57;7.00;;;3.80;;
7359;SDS011;3720;48.274;7.796;2023-02-28T02:50:34;7.45;;;4.28;;
7359;SDS011;3720;48.274;7.796;2023-02-28T02:53:10;6.88;;;3.72;;
7359;SDS011;3720;48.274;7.796;2023-02-28T02:55:47;7.00;;;3.72;;
7359;SDS011;3720;48.274;7.796;2023-02-28T02:58:24;7.78;;;4.30;;
7359;SDS011;3720;48.274;7.796;2023-02-28T03:01:00;8.00;;;4.63;;
7359;SDS011;3720;48.274;7.796;2023-02-28T03:03:34;5.63;;;3.70;;
7359;SDS011;3720;48.274;7.796;2023-02-28T03:06:08;8.30;;;4.20;;
7359;SDS011;3720;48.274;7.796;2023-02-28T03:08:40;5.03;;;3.60;;
7359;SDS011;3720;48.274;7.796;2023-02-28T03:11:13;7.15;;;3.97;;
7359;SDS011;3720;48.274;7.796;2023-02-28T03:16:49;5.07;;;3.60;;
7359;SDS011;3720;48.274;7.796;2023-02-28T03:19:33;5.95;;;3.75;;
7359;SDS011;3720;48.274;7.796;2023-02-28T03:22:24;5.78;;;3.50;;
7359;SDS011;3720;48.274;7.796;2023-02-28T03:25:11;6.57;;;3.90;;
7359;SDS011;3720;48.274;7.796;2023-02-28T03:27:49;7.32;;;4.07;;
7359;SDS011;3720;48.274;7.796;2023-02-28T03:30:29;8.90;;;3.95;;
7359;SDS011;3720;48.274;7.796;2023-02-28T03:33:08;8.50;;;4.43;;
7359;SDS011;3720;48.274;7.796;2023-02-28T03:35:43;11.00;;;4.28;;
7359;SDS011;3720;48.274;7.796;2023-02-28T03:38:22;6.68;;;3.95;;
7359;SDS011;3720;48.274;7.796;2023-02-28T03:41:00;6.68;;;4.13;;
7359;SDS011;3720;48.274;7.796;2023-02-28T03:43:38;5.65;;;3.97;;
7359;SDS011;3720;48.274;7.796;2023-02-28T03:46:14;5.32;;;3.67;;
7359;SDS011;3720;48.274;7.796;2023-02-28T03:48:52;7.95;;;4.53;;
7359;SDS011;3720;48.274;7.796;2023-02-28T03:51:29;8.05;;;4.75;;
7359;SDS011;3720;48.274;7.796;2023-02-28T03:54:05;7.60;;;4.80;;
7359;SDS011;3720;48.274;7.796;2023-02-28T03:56:42;8.65;;;5.10;;
7359;SDS011;3720;48.274;7.796;2023-02-28T03:59:20;6.13;;;4.55;;
7359;SDS011;3720;48.274;7.796;2023-02-28T04:01:56;6.57;;;4.55;;
7359;SDS011;3720;48.274;7.796;2023-02-28T04:04:29;9.05;;;4.63;;
7359;SDS011;3720;48.274;7.796;2023-02-28T04:07:02;6.10;;;4.40;;
7359;SDS011;3720;48.274;7.796;2023-02-28T04:09:37;7.75;;;4.50;;
7359;SDS011;3720;48.274;7.796;2023-02-28T04:12:09;8.32;;;4.30;;
7359;SDS011;3720;48.274;7.796;2023-02-28T04:14:41;7.60;;;4.35;;
7359;SDS011;3720;48.274;7.796;2023-02-28T04:17:13;8.10;;;4.20;;
7359;SDS011;3720;48.274;7.796;2023-02-28T04:19:45;6.35;;;4.40;;
7359;SDS011;3720;48.274;7.796;2023-02-28T04:22:17;8.52;;;4.70;;
7359;SDS011;3720;48.274;7.796;2023-02-28T04:24:51;8.25;;;4.60;;
7359;SDS011;3720;48.274;7.796;2023-02-28T04:27:24;8.93;;;4.45;;
7359;SDS011;3720;48.274;7.796;2023-02-28T04:29:56;7.38;;;4.88;;
7359;SDS011;3720;48.274;7.796;2023-02-28T04:32:28;7.45;;;4.53;;
7359;SDS011;3720;48.274;7.796;2023-02-28T04:34:59;7.82;;;4.80;;
7359;SDS011;3720;48.274;7.796;2023-02-28T04:37:32;7.18;;;4.53;;
7359;SDS011;3720;48.274;7.796;2023-02-28T04:40:07;8.77;;;4.65;;
7359;SDS011;3720;48.274;7.796;2023-02-28T04:42:40;8.10;;;5.00;;
7359;SDS011;3720;48.274;7.796;2023-02-28T04:45:12;8.50;;;5.25;;
7359;SDS011;3720;48.274;7.796;2023-02-28T04:47:44;7.75;;;4.60;;
7359;SDS011;3720;48.274;7.796;2023-02-28T04:50:16;8.43;;;5.00;;
7359;SDS011;3720;48.274;7.796;2023-02-28T04:52:48;8.43;;;5.15;;
7359;SDS011;3720;48.274;7.796;2023-02-28T04:55:22;8.45;;;5.32;;
7359;SDS011;3720;48.274;7.796;2023-02-28T04:57:54;8.77;;;5.28;;
7359;SDS011;3720;48.274;7.796;2023-02-28T05:00:26;9.48;;;5.90;;
7359;SDS011;3720;48.274;7.796;2023-02-28T05:02:57;8.07;;;5.13;;
7359;SDS011;3720;48.274;7.796;2023-02-28T05:05:29;7.53;;;5.10;;
7359;SDS011;3720;48.274;7.796;2023-02-28T05:08:01;6.47;;;4.72;;
7359;SDS011;3720;48.274;7.796;2023-02-28T05:10:36;7.57;;;4.93;;
7359;SDS011;3720;48.274;7.796;2023-02-28T05:13:09;6.60;;;4.75;;
7359;SDS011;3720;48.274;7.796;2023-02-28T05:15:42;6.88;;;5.03;;
7359;SDS011;3720;48.274;7.796;2023-02-28T05:18:14;7.28;;;5.18;;
7359;SDS011;3720;48.274;7.796;2023-02-28T05:20:46;7.88;;;5.03;;
7359;SDS011;3720;48.274;7.796;2023-02-28T05:23:18;6.80;;;4.72;;
7359;SDS011;3720;48.274;7.796;2023-02-28T05:25:54;8.30;;;5.20;;
7359;SDS011;3720;48.274;7.796;2023-02-28T05:28:26;8.57;;;5.60;;
7359;SDS011;3720;48.274;7.796;2023-02-28T05:30:58;8.02;;;5.35;;
7359;SDS011;3720;48.274;7.796;2023-02-28T05:33:29;7.78;;;5.38;;
7359;SDS011;3720;48.274;7.796;2023-02-28T05:36:01;9.80;;;5.00;;
7359;SDS011;3720;48.274;7.796;2023-02-28T05:38:33;9.57;;;5.45;;
7359;SDS011;3720;48.274;7.796;2023-02-28T05:41:08;8.52;;;5.55;;
7359;SDS011;3720;48.274;7.796;2023-02-28T05:43:40;7.25;;;4.97;;
7359;SDS011;3720;48.274;7.796;2023-02-28T05:46:12;8.23;;;5.53;;
7359;SDS011;3720;48.274;7.796;2023-02-28T05:48:46;9.27;;;5.57;;
7359;SDS011;3720;48.274;7.796;2023-02-28T05:51:19;8.65;;;5.60;;
7359;SDS011;3720;48.274;7.796;2023-02-28T05:53:51;7.82;;;5.43;;
7359;SDS011;3720;48.274;7.796;2023-02-28T05:56:24;9.95;;;5.70;;
7359;SDS011;3720;48.274;7.796;2023-02-28T05:58:56;10.00;;;6.05;;
7359;SDS011;3720;48.274;7.796;2023-02-28T06:01:32;9.13;;;5.72;;
7359;SDS011;3720;48.274;7.796;2023-02-28T06:04:05;11.65;;;6.00;;
7359;SDS011;3720;48.274;7.796;2023-02-28T06:06:39;10.10;;;5.90;;
7359;SDS011;3720;48.274;7.796;2023-02-28T06:09:10;9.90;;;5.72;;
7359;SDS011;3720;48.274;7.796;2023-02-28T06:11:44;9.60;;;5.85;;
7359;SDS011;3720;48.274;7.796;2023-02-28T06:14:17;10.18;;;5.90;;
7359;SDS011;3720;48.274;7.796;2023-02-28T06:16:51;7.35;;;5.60;;
7359;SDS011;3720;48.274;7.796;2023-02-28T06:19:23;11.27;;;5.82;;
7359;SDS011;3720;48.274;7.796;2023-02-28T06:21:55;9.90;;;6.07;;
7359;SDS011;3720;48.274;7.796;2023-02-28T06:24:29;9.43;;;5.95;;
7359;SDS011;3720;48.274;7.796;2023-02-28T06:27:04;10.88;;;6.05;;
7359;SDS011;3720;48.274;7.796;2023-02-28T06:29:36;10.77;;;6.13;;
7359;SDS011;3720;48.274;7.796;2023-02-28T06:32:09;11.95;;;6.03;;
7359;SDS011;3720;48.274;7.796;2023-02-28T06:34:41;8.88;;;5.72;;
7359;SDS011;3720;48.274;7.796;2023-02-28T06:37:13;10.35;;;6.22;;
7359;SDS011;3720;48.274;7.796;2023-02-28T06:39:45;10.30;;;6.18;;
7359;SDS011;3720;48.274;7.796;2023-02-28T06:42:18;9.97;;;5.93;;
7359;SDS011;3720;48.274;7.796;2023-02-28T06:44:50;11.85;;;6.32;;
7359;SDS011;3720;48.274;7.796;2023-02-28T06:47:22;11.32;;;6.60;;
7359;SDS011;3720;48.274;7.796;2023-02-28T06:49:54;9.90;;;6.30;;
7359;SDS011;3720;48.274;7.796;2023-02-28T06:52:27;12.02;;;6.85;;
7359;SDS011;3720;48.274;7.796;2023-02-28T06:54:58;11.93;;;6.97;;
7359;SDS011;3720;48.274;7.796;2023-02-28T06:57:32;11.27;;;6.40;;
7359;SDS011;3720;48.274;7.796;2023-02-28T07:00:07;11.02;;;6.68;;
7359;SDS011;3720;48.274;7.796;2023-02-28T07:02:40;13.30;;;6.68;;
7359;SDS011;3720;48.274;7.796;2023-02-28T07:05:12;11.65;;;6.57;;
7359;SDS011;3720;48.274;7.796;2023-02-28T07:07:44;11.55;;;7.00;;
7359;SDS011;3720;48.274;7.796;2023-02-28T07:10:17;9.98;;;6.88;;
7359;SDS011;3720;48.274;7.796;2023-02-28T07:12:51;11.27;;;7.10;;
7359;SDS011;3720;48.274;7.796;2023-02-28T07:15:22;14.75;;;8.27;;
7359;SDS011;3720;48.274;7.796;2023-02-28T07:17:54;10.38;;;7.15;;
7359;SDS011;3720;48.274;7.796;2023-02-28T07:20:27;10.75;;;6.65;;
7359;SDS011;3720;48.274;7.796;2023-02-28T07:22:59;9.80;;;7.03;;
7359;SDS011;3720;48.274;7.796;2023-02-28T07:25:31;15.57;;;8.40;;
7359;SDS011;3720;48.274;7.796;2023-02-28T07:28:04;15.82;;;8.77;;
7359;SDS011;3720;48.274;7.796;2023-02-28T07:30:36;17.67;;;9.20;;
7359;SDS011;3720;48.274;7.796;2023-02-28T07:33:09;18.23;;;9.43;;
7359;SDS011;3720;48.274;7.796;2023-02-28T07:35:41;18.88;;;10.35;;
7359;SDS011;3720;48.274;7.796;2023-02-28T07:38:14;17.27;;;9.40;;
7359;SDS011;3720;48.274;7.796;2023-02-28T07:40:46;13.98;;;8.30;;
7359;SDS011;3720;48.274;7.796;2023-02-28T07:43:19;12.38;;;7.80;;
7359;SDS011;3720;48.274;7.796;2023-02-28T07:45:51;12.23;;;7.90;;
7359;SDS011;3720;48.274;7.796;2023-02-28T07:48:23;13.38;;;8.18;;
7359;SDS011;3720;48.274;7.796;2023-02-28T07:50:54;15.27;;;9.02;;
7359;SDS011;3720;48.274;7.796;2023-02-28T07:53:27;14.05;;;8.30;;
7359;SDS011;3720;48.274;7.796;2023-02-28T07:56:00;19.92;;;11.38;;
7359;SDS011;3720;48.274;7.796;2023-02-28T07:58:35;18.33;;;10.93;;
7359;SDS011;3720;48.274;7.796;2023-02-28T08:01:07;13.32;;;8.38;;
7359;SDS011;3720;48.274;7.796;2023-02-28T08:03:41;12.18;;;7.68;;
7359;SDS011;3720;48.274;7.796;2023-02-28T08:06:15;12.23;;;8.00;;
7359;SDS011;3720;48.274;7.796;2023-02-28T08:08:49;12.77;;;8.23;;
7359;SDS011;3720;48.274;7.796;2023-02-28T08:11:22;11.75;;;7.70;;
7359;SDS011;3720;48.274;7.796;2023-02-28T08:13:55;13.13;;;7.90;;
7359;SDS011;3720;48.274;7.796;2023-02-28T08:16:27;14.30;;;8.48;;
7359;SDS011;3720;48.274;7.796;2023-02-28T08:18:59;14.43;;;8.43;;
7359;SDS011;3720;48.274;7.796;2023-02-28T08:21:32;12.20;;;8.05;;
7359;SDS011;3720;48.274;7.796;2023-02-28T08:24:04;14.40;;;8.18;;
7359;SDS011;3720;48.274;7.796;2023-02-28T08:26:37;13.43;;;7.80;;
7359;SDS011;3720;48.274;7.796;2023-02-28T08:29:11;16.25;;;7.95;;
7359;SDS011;3720;48.274;7.796;2023-02-28T08:31:43;11.07;;;7.47;;
7359;SDS011;3720;48.274;7.796;2023-02-28T08:34:15;11.27;;;7.70;;
7359;SDS011;3720;48.274;7.796;2023-02-28T08:36:48;16.85;;;10.55;;
7359;SDS011;3720;48.274;7.796;2023-02-28T08:39:20;27.13;;;13.32;;
7359;SDS011;3720;48.274;7.796;2023-02-28T08:41:52;17.77;;;8.82;;
7359;SDS011;3720;48.274;7.796;2023-02-28T08:44:25;12.82;;;8.23;;
7359;SDS011;3720;48.274;7.796;2023-02-28T08:46:57;12.30;;;7.95;;
7359;SDS011;3720;48.274;7.796;2023-02-28T08:49:30;12.32;;;7.85;;
7359;SDS011;3720;48.274;7.796;2023-02-28T08:52:01;13.13;;;8.02;;
7359;SDS011;3720;48.274;7.796;2023-02-28T08:54:33;12.88;;;8.30;;
7359;SDS011;3720;48.274;7.796;2023-02-28T08:57:07;13.13;;;8.00;;
7359;SDS011;3720;48.274;7.796;2023-02-28T08:59:40;14.88;;;8.45;;
7359;SDS011;3720;48.274;7.796;2023-02-28T09:02:12;16.05;;;8.48;;
7359;SDS011;3720;48.274;7.796;2023-02-28T09:04:45;11.60;;;7.68;;
7359;SDS011;3720;48.274;7.796;2023-02-28T09:07:17;14.20;;;8.38;;
7359;SDS011;3720;48.274;7.796;2023-02-28T09:09:49;12.82;;;8.48;;
7359;SDS011;3720;48.274;7.796;2023-02-28T09:12:25;15.90;;;8.52;;
7359;SDS011;3720;48.274;7.796;2023-02-28T09:14:59;14.05;;;8.75;;
7359;SDS011;3720;48.274;7.796;2023-02-28T09:17:31;16.00;;;7.95;;
7359;SDS011;3720;48.274;7.796;2023-02-28T09:20:03;13.38;;;8.63;;
7359;SDS011;3720;48.274;7.796;2023-02-28T09:22:36;15.65;;;8.70;;
7359;SDS011;3720;48.274;7.796;2023-02-28T09:25:07;17.95;;;8.45;;
7359;SDS011;3720;48.274;7.796;2023-02-28T09:27:40;13.18;;;8.73;;
7359;SDS011;3720;48.274;7.796;2023-02-28T09:30:14;13.05;;;8.35;;
7359;SDS011;3720;48.274;7.796;2023-02-28T09:32:46;15.40;;;8.65;;
7359;SDS011;3720;48.274;7.796;2023-02-28T09:35:22;14.60;;;9.07;;
7359;SDS011;3720;48.274;7.796;2023-02-28T09:37:56;13.25;;;8.38;;
7359;SDS011;3720;48.274;7.796;2023-02-28T09:40:28;16.15;;;9.73;;
7359;SDS011;3720;48.274;7.796;2023-02-28T09:43:01;13.63;;;8.68;;
7359;SDS011;3720;48.274;7.796;2023-02-28T09:45:35;14.25;;;8.85;;
7359;SDS011;3720;48.274;7.796;2023-02-28T09:48:12;14.88;;;8.57;;
7359;SDS011;3720;48.274;7.796;2023-02-28T09:50:49;14.68;;;8.70;;
7359;SDS011;3720;48.274;7.796;2023-02-28T09:53:25;15.05;;;9.23;;
7359;SDS011;3720;48.274;7.796;2023-02-28T09:56:04;15.30;;;9.18;;
7359;SDS011;3720;48.274;7.796;2023-02-28T09:58:40;15.27;;;9.50;;
7359;SDS011;3720;48.274;7.796;2023-02-28T10:01:21;14.50;;;9.13;;
7359;SDS011;3720;48.274;7.796;2023-02-28T10:03:59;13.77;;;8.77;;
7359;SDS011;3720;48.274;7.796;2023-02-28T10:06:36;14.68;;;9.27;;
7359;SDS011;3720;48.274;7.796;2023-02-28T10:09:17;14.63;;;9.10;;
7359;SDS011;3720;48.274;7.796;2023-02-28T10:11:54;15.60;;;9.30;;
7359;SDS011;3720;48.274;7.796;2023-02-28T10:14:31;13.98;;;8.68;;
7359;SDS011;3720;48.274;7.796;2023-02-28T10:17:08;14.48;;;8.93;;
7359;SDS011;3720;48.274;7.796;2023-02-28T10:19:44;13.05;;;8.52;;
7359;SDS011;3720;48.274;7.796;2023-02-28T10:22:23;16.05;;;8.45;;
7359;SDS011;3720;48.274;7.796;2023-02-28T10:24:58;16.45;;;8.95;;
7359;SDS011;3720;48.274;7.796;2023-02-28T10:27:33;15.23;;;9.48;;
7359;SDS011;3720;48.274;7.796;2023-02-28T10:30:05;13.20;;;8.93;;
7359;SDS011;3720;48.274;7.796;2023-02-28T10:32:43;16.40;;;9.57;;
7359;SDS011;3720;48.274;7.796;2023-02-28T10:35:24;15.68;;;9.18;;
7359;SDS011;3720;48.274;7.796;2023-02-28T10:37:57;16.65;;;9.43;;
7359;SDS011;3720;48.274;7.796;2023-02-28T10:40:32;15.32;;;10.05;;
7359;SDS011;3720;48.274;7.796;2023-02-28T10:43:17;15.57;;;9.73;;
7359;SDS011;3720;48.274;7.796;2023-02-28T10:45:53;15.80;;;10.35;;
7359;SDS011;3720;48.274;7.796;2023-02-28T10:48:33;14.70;;;9.27;;
7359;SDS011;3720;48.274;7.796;2023-02-28T10:51:08;15.60;;;9.80;;
7359;SDS011;3720;48.274;7.796;2023-02-28T10:53:47;15.02;;;9.27;;
7359;SDS011;3720;48.274;7.796;2023-02-28T10:56:21;14.13;;;9.63;;
7359;SDS011;3720;48.274;7.796;2023-02-28T10:58:54;14.90;;;9.75;;
7359;SDS011;3720;48.274;7.796;2023-02-28T11:01:35;15.57;;;9.88;;
7359;SDS011;3720;48.274;7.796;2023-02-28T11:04:19;15.38;;;9.73;;
7359;SDS011;3720;48.274;7.796;2023-02-28T11:07:06;15.13;;;9.55;;
7359;SDS011;3720;48.274;7.796;2023-02-28T11:09:49;17.63;;;10.70;;
7359;SDS011;3720;48.274;7.796;2023-02-28T11:12:23;15.68;;;9.60;;
7359;SDS011;3720;48.274;7.796;2023-02-28T11:14:59;18.88;;;9.75;;
7359;SDS011;3720;48.274;7.796;2023-02-28T11:17:34;14.52;;;9.77;;
7359;SDS011;3720;48.274;7.796;2023-02-28T11:20:18;13.68;;;9.63;;
7359;SDS011;3720;48.274;7.796;2023-02-28T11:22:53;16.15;;;9.77;;
7359;SDS011;3720;48.274;7.796;2023-02-28T11:25:28;16.88;;;10.13;;
7359;SDS011;3720;48.274;7.796;2023-02-28T11:28:02;15.85;;;9.90;;
7359;SDS011;3720;48.274;7.796;2023-02-28T11:30:37;16.65;;;9.95;;
7359;SDS011;3720;48.274;7.796;2023-02-28T11:36:02;16.05;;;10.18;;
7359;SDS011;3720;48.274;7.796;2023-02-28T11:38:39;16.95;;;9.95;;
7359;SDS011;3720;48.274;7.796;2023-02-28T11:41:24;15.73;;;9.88;;
7359;SDS011;3720;48.274;7.796;2023-02-28T11:44:10;14.63;;;9.55;;
7359;SDS011;3720;48.274;7.796;2023-02-28T11:46:56;16.90;;;11.05;;
7359;SDS011;3720;48.274;7.796;2023-02-28T11:49:32;17.35;;;10.88;;
7359;SDS011;3720;48.274;7.796;2023-02-28T11:52:14;17.15;;;10.45;;
7359;SDS011;3720;48.274;7.796;2023-02-28T11:54:56;24.88;;;15.05;;
7359;SDS011;3720;48.274;7.796;2023-02-28T11:57:36;19.85;;;12.23;;
7359;SDS011;3720;48.274;7.796;2023-02-28T12:00:25;16.90;;;10.35;;
7359;SDS011;3720;48.274;7.796;2023-02-28T12:03:15;16.35;;;10.30;;
7359;SDS011;3720;48.274;7.796;2023-02-28T12:06:00;15.20;;;10.15;;
7359;SDS011;3720;48.274;7.796;2023-02-28T12:08:44;16.05;;;10.25;;
7359;SDS011;3720;48.274;7.796;2023-02-28T12:11:28;19.75;;;11.60;;
7359;SDS011;3720;48.274;7.796;2023-02-28T12:14:13;18.00;;;10.82;;
7359;SDS011;3720;48.274;7.796;2023-02-28T12:17:13;15.98;;;9.75;;
7359;SDS011;3720;48.274;7.796;2023-02-28T12:19:55;16.63;;;10.40;;
7359;SDS011;3720;48.274;7.796;2023-02-28T12:22:35;15.45;;;9.55;;
7359;SDS011;3720;48.274;7.796;2023-02-28T12:28:21;15.82;;;10.18;;
7359;SDS011;3720;48.274;7.796;2023-02-28T12:33:32;15.05;;;9.98;;
7359;SDS011;3720;48.274;7.796;2023-02-28T12:36:09;16.80;;;10.17;;
7359;SDS011;3720;48.274;7.796;2023-02-28T12:38:46;15.88;;;10.65;;
7359;SDS011;3720;48.274;7.796;2023-02-28T12:41:25;24.00;;;13.70;;
7359;SDS011;3720;48.274;7.796;2023-02-28T12:44:14;20.77;;;12.07;;
7359;SDS011;3720;48.274;7.796;2023-02-28T12:46:50;18.38;;;11.38;;
7359;SDS011;3720;48.274;7.796;2023-02-28T12:49:27;19.33;;;11.75;;
7359;SDS011;3720;48.274;7.796;2023-02-28T12:54:35;18.13;;;11.30;;
7359;SDS011;3720;48.274;7.796;2023-02-28T12:57:17;15.98;;;10.70;;
7359;SDS011;3720;48.274;7.796;2023-02-28T12:59:56;17.80;;;11.48;;
7359;SDS011;3720;48.274;7.796;2023-02-28T13:11:31;16.35;;;10.70;;
7359;SDS011;3720;48.274;7.796;2023-02-28T13:14:06;18.75;;;11.38;;
7359;SDS011;3720;48.274;7.796;2023-02-28T13:19:28;21.23;;;12.45;;
7359;SDS011;3720;48.274;7.796;2023-02-28T13:22:02;22.23;;;13.65;;
7359;SDS011;3720;48.274;7.796;2023-02-28T13:24:37;17.80;;;10.90;;
7359;SDS011;3720;48.274;7.796;2023-02-28T13:27:20;19.10;;;11.97;;
7359;SDS011;3720;48.274;7.796;2023-02-28T13:33:23;17.38;;;11.60;;
7359;SDS011;3720;48.274;7.796;2023-02-28T13:38:59;19.75;;;12.13;;
7359;SDS011;3720;48.274;7.796;2023-02-28T13:44:26;16.23;;;10.80;;
7359;SDS011;3720;48.274;7.796;2023-02-28T13:50:22;16.55;;;10.98;;
7359;SDS011;3720;48.274;7.796;2023-02-28T13:56:09;13.48;;;9.48;;
7359;SDS011;3720;48.274;7.796;2023-02-28T13:58:57;16.58;;;10.95;;
7359;SDS011;3720;48.274;7.796;2023-02-28T14:01:43;16.17;;;10.73;;
7359;SDS011;3720;48.274;7.796;2023-02-28T14:04:30;15.25;;;10.13;;
7359;SDS011;3720;48.274;7.796;2023-02-28T14:07:29;16.58;;;10.85;;
7359;SDS011;3720;48.274;7.796;2023-02-28T14:10:04;15.80;;;10.80;;
7359;SDS011;3720;48.274;7.796;2023-02-28T14:12:54;15.98;;;10.70;;
7359;SDS011;3720;48.274;7.796;2023-02-28T14:15:36;15.27;;;10.57;;
7359;SDS011;3720;48.274;7.796;2023-02-28T14:18:17;16.17;;;10.57;;
7359;SDS011;3720;48.274;7.796;2023-02-28T14:20:53;16.85;;;11.13;;
7359;SDS011;3720;48.274;7.796;2023-02-28T14:26:18;16.42;;;10.55;;
7359;SDS011;3720;48.274;7.796;2023-02-28T14:29:16;13.63;;;9.80;;
7359;SDS011;3720;48.274;7.796;2023-02-28T14:32:15;15.48;;;9.90;;
7359;SDS011;3720;48.274;7.796;2023-02-28T14:34:58;17.40;;;11.32;;
7359;SDS011;3720;48.274;7.796;2023-02-28T14:37:38;16.10;;;10.90;;
7359;SDS011;3720;48.274;7.796;2023-02-28T14:40:16;17.63;;;11.52;;
7359;SDS011;3720;48.274;7.796;2023-02-28T14:42:54;14.65;;;10.35;;
7359;SDS011;3720;48.274;7.796;2023-02-28T14:45:27;13.27;;;9.60;;
7359;SDS011;3720;48.274;7.796;2023-02-28T14:48:01;18.67;;;12.52;;
7359;SDS011;3720;48.274;7.796;2023-02-28T14:50:39;13.55;;;9.32;;
7359;SDS011;3720;48.274;7.796;2023-02-28T14:53:21;14.95;;;9.60;;
7359;SDS011;3720;48.274;7.796;2023-02-28T14:55:57;13.88;;;9.93;;
7359;SDS011;3720;48.274;7.796;2023-02-28T14:58:31;12.77;;;9.70;;
7359;SDS011;3720;48.274;7.796;2023-02-28T15:01:04;13.80;;;9.50;;
7359;SDS011;3720;48.274;7.796;2023-02-28T15:03:38;14.10;;;9.43;;
7359;SDS011;3720;48.274;7.796;2023-02-28T15:06:12;13.50;;;9.50;;
7359;SDS011;3720;48.274;7.796;2023-02-28T15:08:47;16.45;;;10.07;;
7359;SDS011;3720;48.274;7.796;2023-02-28T15:11:21;15.52;;;10.20;;
7359;SDS011;3720;48.274;7.796;2023-02-28T15:13:53;14.35;;;9.52;;
7359;SDS011;3720;48.274;7.796;2023-02-28T15:16:28;15.30;;;10.00;;
7359;SDS011;3720;48.274;7.796;2023-02-28T15:19:04;15.65;;;9.85;;
7359;SDS011;3720;48.274;7.796;2023-02-28T15:21:38;12.73;;;9.07;;
7359;SDS011;3720;48.274;7.796;2023-02-28T15:24:15;18.45;;;11.90;;
7359;SDS011;3720;48.274;7.796;2023-02-28T15:26:55;14.65;;;10.15;;
7359;SDS011;3720;48.274;7.796;2023-02-28T15:29:30;13.50;;;9.38;;
7359;SDS011;3720;48.274;7.796;2023-02-28T15:32:19;14.35;;;10.25;;
7359;SDS011;3720;48.274;7.796;2023-02-28T15:34:56;15.15;;;10.73;;
7359;SDS011;3720;48.274;7.796;2023-02-28T15:37:35;15.15;;;10.32;;
7359;SDS011;3720;48.274;7.796;2023-02-28T15:40:12;15.52;;;10.30;;
7359;SDS011;3720;48.274;7.796;2023-02-28T15:43:02;14.75;;;10.18;;
7359;SDS011;3720;48.274;7.796;2023-02-28T15:45:37;14.75;;;9.80;;
7359;SDS011;3720;48.274;7.796;2023-02-28T15:48:19;15.93;;;11.35;;
7359;SDS011;3720;48.274;7.796;2023-02-28T15:50:53;14.40;;;10.05;;
7359;SDS011;3720;48.274;7.796;2023-02-28T15:53:28;14.07;;;10.43;;
7359;SDS011;3720;48.274;7.796;2023-02-28T15:56:04;15.50;;;10.70;;
7359;SDS011;3720;48.274;7.796;2023-02-28T15:58:45;14.13;;;9.73;;
7359;SDS011;3720;48.274;7.796;2023-02-28T16:01:19;14.65;;;9.93;;
7359;SDS011;3720;48.274;7.796;2023-02-28T16:03:55;15.23;;;10.20;;
7359;SDS011;3720;48.274;7.796;2023-02-28T16:06:33;16.38;;;10.75;;
7359;SDS011;3720;48.274;7.796;2023-02-28T16:09:13;14.45;;;10.45;;
7359;SDS011;3720;48.274;7.796;2023-02-28T16:11:48;16.05;;;11.55;;
7359;SDS011;3720;48.274;7.796;2023-02-28T16:14:23;17.00;;;11.02;;
7359;SDS011;3720;48.274;7.796;2023-02-28T16:17:01;17.05;;;11.75;;
7359;SDS011;3720;48.274;7.796;2023-02-28T16:19:35;16.75;;;11.80;;
7359;SDS011;3720;48.274;7.796;2023-02-28T16:22:07;16.65;;;11.52;;
7359;SDS011;3720;48.274;7.796;2023-02-28T16:24:39;17.88;;;11.55;;
7359;SDS011;3720;48.274;7.796;2023-02-28T16:27:15;23.02;;;13.27;;
7359;SDS011;3720;48.274;7.796;2023-02-28T16:29:51;21.05;;;13.60;;
7359;SDS011;3720;48.274;7.796;2023-02-28T16:32:23;17.00;;;12.20;;
7359;SDS011;3720;48.274;7.796;2023-02-28T16:34:55;17.67;;;11.57;;
7359;SDS011;3720;48.274;7.796;2023-02-28T16:37:27;19.98;;;12.10;;
7359;SDS011;3720;48.274;7.796;2023-02-28T16:39:59;17.08;;;11.88;;
7359;SDS011;3720;48.274;7.796;2023-02-28T16:42:32;17.48;;;12.02;;